sensor_id;sensor_type;location;lat;lon;timestamp;pressure;altitude;pressure_sealevel;temperature;humidity
19208;BME280;9737;59.466;18.036;2022-09-03T00:01:47;94872.94;;;3.61;62.40
19208;BME280;9737;59.466;18.036;2022-09-03T00:04:21;94879.00;;;3.61;62.22
19208;BME280;9737;59.466;18.036;2022-09-03T00:06:58;94867.28;;;3.57;62.16
19208;BME280;9737;59.466;18.036;2022-09-03T00:09:31;94872.13;;;3.60;62.53
19208;BME280;9737;59.466;18.036;2022-09-03T00:12:07;94834.97;;;3.43;62.46
19208;BME280;9737;59.466;18.036;2022-09-03T00:14:38;94880.59;;;3.62;62.41
19208;BME280;9737;59.466;18.036;2022-09-03T00:17:13;94893.91;;;3.67;62.47
19208;BME280;9737;59.466;18.036;2022-09-03T00:19:46;94884.44;;;3.60;62.41
19208;BME280;9737;59.466;18.036;2022-09-03T00:22:20;94902.00;;;3.66;62.58
19208;BME280;9737;59.466;18.036;2022-09-03T00:24:51;94898.38;;;3.67;62.67
19208;BME280;9737;59.466;18.036;2022-09-03T00:27:22;94902.81;;;3.66;62.92
19208;BME280;9737;59.466;18.036;2022-09-03T00:29:55;94924.63;;;3.73;62.80
19208;BME280;9737;59.466;18.036;2022-09-03T00:32:28;94921.78;;;3.75;62.89
19208;BME280;9737;59.466;18.036;2022-09-03T00:35:06;94935.56;;;3.77;63.18
19208;BME280;9737;59.466;18.036;2022-09-03T00:37:40;94944.84;;;3.80;63.12
19208;BME280;9737;59.466;18.036;2022-09-03T00:40:17;94954.13;;;3.82;63.34
19208;BME280;9737;59.466;18.036;2022-09-03T00:42:53;94976.97;;;3.88;63.13
19208;BME280;9737;59.466;18.036;2022-09-03T00:45:31;95003.00;;;3.96;63.28
19208;BME280;9737;59.466;18.036;2022-09-03T00:48:09;95022.81;;;3.99;63.48
19208;BME280;9737;59.466;18.036;2022-09-03T00:50:52;95033.13;;;4.00;63.29
19208;BME280;9737;59.466;18.036;2022-09-03T00:53:32;95080.25;;;4.15;63.22
19208;BME280;9737;59.466;18.036;2022-09-03T00:56:07;95108.13;;;4.23;63.65
19208;BME280;9737;59.466;18.036;2022-09-03T00:58:54;95136.44;;;4.27;63.92
19208;BME280;9737;59.466;18.036;2022-09-03T01:01:29;95145.75;;;4.30;63.66
19208;BME280;9737;59.466;18.036;2022-09-03T01:04:10;95166.00;;;4.36;63.88
19208;BME280;9737;59.466;18.036;2022-09-03T01:06:46;95178.53;;;4.41;63.60
19208;BME280;9737;59.466;18.036;2022-09-03T01:09:29;95206.44;;;4.48;64.14
19208;BME280;9737;59.466;18.036;2022-09-03T01:12:04;95230.13;;;4.55;63.68
19208;BME280;9737;59.466;18.036;2022-09-03T01:14:50;95259.06;;;4.61;63.87
19208;BME280;9737;59.466;18.036;2022-09-03T01:17:29;95274.47;;;4.64;64.02
19208;BME280;9737;59.466;18.036;2022-09-03T01:20:08;95307.66;;;4.72;63.85
19208;BME280;9737;59.466;18.036;2022-09-03T01:25:49;95355.03;;;4.85;64.65
19208;BME280;9737;59.466;18.036;2022-09-03T01:28:28;95365.97;;;4.89;64.18
19208;BME280;9737;59.466;18.036;2022-09-03T01:31:08;95374.88;;;4.88;64.66
19208;BME280;9737;59.466;18.036;2022-09-03T01:33:43;95396.75;;;4.95;64.39
19208;BME280;9737;59.466;18.036;2022-09-03T01:36:19;95432.41;;;5.04;64.31
19208;BME280;9737;59.466;18.036;2022-09-03T01:38:54;95444.16;;;5.08;64.61
19208;BME280;9737;59.466;18.036;2022-09-03T01:41:30;95453.69;;;5.09;64.38
19208;BME280;9737;59.466;18.036;2022-09-03T01:44:26;95468.47;;;5.10;64.79
19208;BME280;9737;59.466;18.036;2022-09-03T01:47:03;95486.09;;;5.16;64.81
19208;BME280;9737;59.466;18.036;2022-09-03T01:49:40;95494.81;;;5.17;64.72
19208;BME280;9737;59.466;18.036;2022-09-03T01:52:13;95528.28;;;5.29;65.32
19208;BME280;9737;59.466;18.036;2022-09-03T01:54:49;95543.47;;;5.34;64.74
19208;BME280;9737;59.466;18.036;2022-09-03T01:57:27;95563.94;;;5.39;65.29
19208;BME280;9737;59.466;18.036;2022-09-03T02:00:08;95592.94;;;5.45;65.52
19208;BME280;9737;59.466;18.036;2022-09-03T02:02:40;95609.81;;;5.51;65.76
19208;BME280;9737;59.466;18.036;2022-09-03T02:05:12;95640.63;;;5.57;64.95
19208;BME280;9737;59.466;18.036;2022-09-03T02:07:43;95658.28;;;5.63;64.92
19208;BME280;9737;59.466;18.036;2022-09-03T02:10:14;95683.00;;;5.69;65.81
19208;BME280;9737;59.466;18.036;2022-09-03T02:12:45;95703.50;;;5.73;65.40
19208;BME280;9737;59.466;18.036;2022-09-03T02:15:20;95708.16;;;5.71;65.35
19208;BME280;9737;59.466;18.036;2022-09-03T02:17:50;95728.09;;;5.80;65.28
19208;BME280;9737;59.466;18.036;2022-09-03T02:20:26;95748.38;;;5.86;65.37
19208;BME280;9737;59.466;18.036;2022-09-03T02:22:56;95764.00;;;5.88;66.02
19208;BME280;9737;59.466;18.036;2022-09-03T02:25:31;95758.13;;;5.86;66.04
19208;BME280;9737;59.466;18.036;2022-09-03T02:28:01;95768.72;;;5.93;65.52
19208;BME280;9737;59.466;18.036;2022-09-03T02:30:35;95779.25;;;5.93;66.03
19208;BME280;9737;59.466;18.036;2022-09-03T02:33:03;95777.19;;;5.88;66.00
19208;BME280;9737;59.466;18.036;2022-09-03T02:35:32;95798.75;;;5.98;66.28
19208;BME280;9737;59.466;18.036;2022-09-03T02:38:09;95799.94;;;5.96;66.41
19208;BME280;9737;59.466;18.036;2022-09-03T02:40:37;95809.91;;;6.00;66.28
19208;BME280;9737;59.466;18.036;2022-09-03T02:43:07;95814.97;;;6.02;65.86
19208;BME280;9737;59.466;18.036;2022-09-03T02:45:41;95817.41;;;6.03;65.80
19208;BME280;9737;59.466;18.036;2022-09-03T02:48:13;95823.50;;;6.04;65.97
19208;BME280;9737;59.466;18.036;2022-09-03T02:50:43;95836.69;;;6.04;66.12
19208;BME280;9737;59.466;18.036;2022-09-03T02:53:11;95835.31;;;6.08;66.72
19208;BME280;9737;59.466;18.036;2022-09-03T02:55:39;95846.22;;;6.05;66.17
19208;BME280;9737;59.466;18.036;2022-09-03T02:58:07;95858.47;;;6.12;66.26
19208;BME280;9737;59.466;18.036;2022-09-03T03:00:35;95879.97;;;6.16;66.94
19208;BME280;9737;59.466;18.036;2022-09-03T03:03:05;95885.25;;;6.16;66.96
19208;BME280;9737;59.466;18.036;2022-09-03T03:05:41;95905.75;;;6.20;66.62
19208;BME280;9737;59.466;18.036;2022-09-03T03:08:10;95893.78;;;6.18;67.05
19208;BME280;9737;59.466;18.036;2022-09-03T03:10:41;95917.34;;;6.26;67.07
19208;BME280;9737;59.466;18.036;2022-09-03T03:13:10;95937.66;;;6.32;67.21
19208;BME280;9737;59.466;18.036;2022-09-03T03:15:39;95942.94;;;6.32;67.32
19208;BME280;9737;59.466;18.036;2022-09-03T03:18:09;95949.03;;;6.33;66.79
19208;BME280;9737;59.466;18.036;2022-09-03T03:20:38;95951.88;;;6.31;67.04
19208;BME280;9737;59.466;18.036;2022-09-03T03:23:06;95983.00;;;6.42;67.09
19208;BME280;9737;59.466;18.036;2022-09-03T03:25:36;96001.91;;;6.46;67.46
19208;BME280;9737;59.466;18.036;2022-09-03T03:28:06;96027.31;;;6.53;67.57
19208;BME280;9737;59.466;18.036;2022-09-03T03:30:37;96033.22;;;6.56;67.19
19208;BME280;9737;59.466;18.036;2022-09-03T03:33:05;96044.59;;;6.56;67.62
19208;BME280;9737;59.466;18.036;2022-09-03T03:35:35;96043.34;;;6.52;67.83
19208;BME280;9737;59.466;18.036;2022-09-03T03:38:04;96055.56;;;6.60;67.70
19208;BME280;9737;59.466;18.036;2022-09-03T03:40:31;96068.38;;;6.63;67.88
19208;BME280;9737;59.466;18.036;2022-09-03T03:43:00;96071.63;;;6.65;67.35
19208;BME280;9737;59.466;18.036;2022-09-03T03:45:28;96085.47;;;6.67;67.51
19208;BME280;9737;59.466;18.036;2022-09-03T03:47:56;96099.91;;;6.71;67.41
19208;BME280;9737;59.466;18.036;2022-09-03T03:50:25;96101.13;;;6.68;67.98
19208;BME280;9737;59.466;18.036;2022-09-03T03:52:58;96117.38;;;6.72;68.20
19208;BME280;9737;59.466;18.036;2022-09-03T03:55:27;96135.91;;;6.78;67.69
19208;BME280;9737;59.466;18.036;2022-09-03T03:58:00;96147.91;;;6.81;67.74
19208;BME280;9737;59.466;18.036;2022-09-03T04:00:28;96158.09;;;6.84;68.32
19208;BME280;9737;59.466;18.036;2022-09-03T04:02:58;96171.91;;;6.86;67.85
19208;BME280;9737;59.466;18.036;2022-09-03T04:05:26;96196.91;;;6.90;68.44
19208;BME280;9737;59.466;18.036;2022-09-03T04:08:01;96186.16;;;6.92;68.08
19208;BME280;9737;59.466;18.036;2022-09-03T04:10:29;96191.63;;;6.90;68.45
19208;BME280;9737;59.466;18.036;2022-09-03T04:12:57;96214.66;;;6.96;68.33
19208;BME280;9737;59.466;18.036;2022-09-03T04:15:26;96219.75;;;6.98;68.59
19208;BME280;9737;59.466;18.036;2022-09-03T04:17:54;96223.81;;;7.00;68.30
19208;BME280;9737;59.466;18.036;2022-09-03T04:20:22;96231.38;;;7.03;68.59
19208;BME280;9737;59.466;18.036;2022-09-03T04:22:50;96246.81;;;7.06;68.26
19208;BME280;9737;59.466;18.036;2022-09-03T04:25:19;96283.03;;;7.12;68.51
19208;BME280;9737;59.466;18.036;2022-09-03T04:27:47;96291.19;;;7.18;68.73
19208;BME280;9737;59.466;18.036;2022-09-03T04:30:18;96303.78;;;7.15;68.58
19208;BME280;9737;59.466;18.036;2022-09-03T04:32:48;96355.34;;;7.33;68.77
19208;BME280;9737;59.466;18.036;2022-09-03T04:35:24;96364.91;;;7.34;68.89
19208;BME280;9737;59.466;18.036;2022-09-03T04:38:01;96387.13;;;7.39;68.65
19208;BME280;9737;59.466;18.036;2022-09-03T04:40:31;96397.50;;;7.41;68.95
19208;BME280;9737;59.466;18.036;2022-09-03T04:42:59;96425.19;;;7.45;68.99
19208;BME280;9737;59.466;18.036;2022-09-03T04:45:27;96437.00;;;7.49;69.28
19208;BME280;9737;59.466;18.036;2022-09-03T04:47:57;96462.53;;;7.57;69.18
19208;BME280;9737;59.466;18.036;2022-09-03T04:50:27;96490.03;;;7.62;69.23
19208;BME280;9737;59.466;18.036;2022-09-03T04:53:00;96512.03;;;7.69;69.32
19208;BME280;9737;59.466;18.036;2022-09-03T04:55:36;96547.94;;;7.78;69.38
19208;BME280;9737;59.466;18.036;2022-09-03T04:58:05;96570.00;;;7.86;69.46
19208;BME280;9737;59.466;18.036;2022-09-03T05:00:34;96598.69;;;7.89;69.60
19208;BME280;9737;59.466;18.036;2022-09-03T05:03:03;96616.28;;;7.96;69.42
19208;BME280;9737;59.466;18.036;2022-09-03T05:05:31;96653.19;;;8.04;69.96
19208;BME280;9737;59.466;18.036;2022-09-03T05:08:00;96678.44;;;8.07;69.35
19208;BME280;9737;59.466;18.036;2022-09-03T05:10:28;96716.03;;;8.17;70.11
19208;BME280;9737;59.466;18.036;2022-09-03T05:12:59;96745.03;;;8.25;69.83
19208;BME280;9737;59.466;18.036;2022-09-03T05:15:28;96763.47;;;8.33;70.27
19208;BME280;9737;59.466;18.036;2022-09-03T05:17:57;96778.97;;;8.36;70.03
19208;BME280;9737;59.466;18.036;2022-09-03T05:20:27;96800.44;;;8.42;69.80
19208;BME280;9737;59.466;18.036;2022-09-03T05:22:56;96818.59;;;8.45;70.04
19208;BME280;9737;59.466;18.036;2022-09-03T05:25:24;96844.31;;;8.51;70.11
19208;BME280;9737;59.466;18.036;2022-09-03T05:27:52;96861.09;;;8.58;70.03
19208;BME280;9737;59.466;18.036;2022-09-03T05:30:21;96884.91;;;8.58;70.50
19208;BME280;9737;59.466;18.036;2022-09-03T05:32:50;96905.00;;;8.67;70.55
19208;BME280;9737;59.466;18.036;2022-09-03T05:35:18;96933.41;;;8.73;70.38
19208;BME280;9737;59.466;18.036;2022-09-03T05:37:53;96958.50;;;8.77;70.54
19208;BME280;9737;59.466;18.036;2022-09-03T05:40:22;96982.63;;;8.82;70.72
19208;BME280;9737;59.466;18.036;2022-09-03T05:42:54;96989.19;;;8.86;70.72
19208;BME280;9737;59.466;18.036;2022-09-03T05:45:25;97012.28;;;8.92;70.37
19208;BME280;9737;59.466;18.036;2022-09-03T05:47:53;97036.44;;;8.97;70.39
19208;BME280;9737;59.466;18.036;2022-09-03T05:50:23;97070.16;;;9.04;70.73
19208;BME280;9737;59.466;18.036;2022-09-03T05:52:51;97090.59;;;9.10;70.64
19208;BME280;9737;59.466;18.036;2022-09-03T05:55:19;97113.72;;;9.16;70.47
19208;BME280;9737;59.466;18.036;2022-09-03T05:57:50;97139.50;;;9.22;70.98
19208;BME280;9737;59.466;18.036;2022-09-03T06:00:19;97153.56;;;9.22;70.68
19208;BME280;9737;59.466;18.036;2022-09-03T06:02:50;97179.81;;;9.32;71.16
19208;BME280;9737;59.466;18.036;2022-09-03T06:05:20;97193.72;;;9.34;71.30
19208;BME280;9737;59.466;18.036;2022-09-03T06:07:48;97232.22;;;9.45;71.18
19208;BME280;9737;59.466;18.036;2022-09-03T06:10:15;97252.88;;;9.49;71.36
19208;BME280;9737;59.466;18.036;2022-09-03T06:12:51;97268.25;;;9.54;70.99
19208;BME280;9737;59.466;18.036;2022-09-03T06:15:19;97299.19;;;9.61;71.47
19208;BME280;9737;59.466;18.036;2022-09-03T06:17:47;97311.63;;;9.61;71.01
19208;BME280;9737;59.466;18.036;2022-09-03T06:20:16;97347.13;;;9.75;71.79
19208;BME280;9737;59.466;18.036;2022-09-03T06:22:47;97381.25;;;9.78;71.43
19208;BME280;9737;59.466;18.036;2022-09-03T06:25:18;97414.69;;;9.87;71.63
19208;BME280;9737;59.466;18.036;2022-09-03T06:27:46;97437.66;;;9.94;71.42
19208;BME280;9737;59.466;18.036;2022-09-03T06:30:15;97454.88;;;9.99;71.74
19208;BME280;9737;59.466;18.036;2022-09-03T06:32:43;97482.53;;;10.04;72.42
19208;BME280;9737;59.466;18.036;2022-09-03T06:35:12;97538.88;;;10.14;71.71
19208;BME280;9737;59.466;18.036;2022-09-03T06:37:42;97558.44;;;10.21;72.03
19208;BME280;9737;59.466;18.036;2022-09-03T06:40:10;97556.47;;;10.15;71.69
19208;BME280;9737;59.466;18.036;2022-09-03T06:43:06;97592.22;;;10.28;72.24
19208;BME280;9737;59.466;18.036;2022-09-03T06:46:15;97621.72;;;10.33;71.60
19208;BME280;9737;59.466;18.036;2022-09-03T06:48:54;97629.31;;;10.21;72.11
19208;BME280;9737;59.466;18.036;2022-09-03T06:51:34;97682.44;;;10.44;72.15
19208;BME280;9737;59.466;18.036;2022-09-03T06:54:06;97694.63;;;10.53;72.39
19208;BME280;9737;59.466;18.036;2022-09-03T06:56:35;97695.28;;;10.55;72.67
19208;BME280;9737;59.466;18.036;2022-09-03T06:59:07;97710.84;;;10.58;72.90
19208;BME280;9737;59.466;18.036;2022-09-03T07:01:39;97785.81;;;10.76;72.29
19208;BME280;9737;59.466;18.036;2022-09-03T07:04:13;97807.72;;;10.78;72.93
19208;BME280;9737;59.466;18.036;2022-09-03T07:06:51;97754.09;;;10.52;72.15
19208;BME280;9737;59.466;18.036;2022-09-03T07:09:21;97786.75;;;10.61;72.24
19208;BME280;9737;59.466;18.036;2022-09-03T07:11:49;97852.50;;;10.90;72.42
19208;BME280;9737;59.466;18.036;2022-09-03T07:14:18;97880.72;;;10.99;72.55
19208;BME280;9737;59.466;18.036;2022-09-03T07:17:12;97854.28;;;10.74;72.80
19208;BME280;9737;59.466;18.036;2022-09-03T07:20:03;97916.59;;;10.95;72.57
19208;BME280;9737;59.466;18.036;2022-09-03T07:22:35;97935.53;;;11.00;72.96
19208;BME280;9737;59.466;18.036;2022-09-03T07:25:05;97976.97;;;11.17;72.63
19208;BME280;9737;59.466;18.036;2022-09-03T07:27:36;98011.84;;;11.30;73.08
19208;BME280;9737;59.466;18.036;2022-09-03T07:30:12;98036.72;;;11.37;72.74
19208;BME280;9737;59.466;18.036;2022-09-03T07:32:58;98020.25;;;11.11;72.72
19208;BME280;9737;59.466;18.036;2022-09-03T07:35:52;98100.72;;;11.44;73.12
19208;BME280;9737;59.466;18.036;2022-09-03T07:38:39;98111.25;;;11.37;73.07
19208;BME280;9737;59.466;18.036;2022-09-03T07:41:30;98164.88;;;11.57;73.03
19208;BME280;9737;59.466;18.036;2022-09-03T07:44:17;98179.31;;;11.63;73.48
19208;BME280;9737;59.466;18.036;2022-09-03T07:47:22;98169.56;;;11.47;73.31
19208;BME280;9737;59.466;18.036;2022-09-03T07:50:00;98184.00;;;11.53;73.27
19208;BME280;9737;59.466;18.036;2022-09-03T07:52:35;98233.19;;;11.73;73.58
19208;BME280;9737;59.466;18.036;2022-09-03T07:55:12;98251.47;;;11.84;73.39
19208;BME280;9737;59.466;18.036;2022-09-03T07:57:59;98186.00;;;11.51;73.40
19208;BME280;9737;59.466;18.036;2022-09-03T08:01:17;98215.25;;;11.67;73.50
19208;BME280;9737;59.466;18.036;2022-09-03T08:03:53;98203.94;;;11.65;73.59
19208;BME280;9737;59.466;18.036;2022-09-03T08:06:41;98230.00;;;11.77;73.50
19208;BME280;9737;59.466;18.036;2022-09-03T08:09:26;98210.25;;;11.64;73.54
19208;BME280;9737;59.466;18.036;2022-09-03T08:12:07;98227.50;;;11.76;73.72
19208;BME280;9737;59.466;18.036;2022-09-03T08:14:48;98185.34;;;11.48;73.50
19208;BME280;9737;59.466;18.036;2022-09-03T08:17:42;98188.97;;;11.56;73.44
19208;BME280;9737;59.466;18.036;2022-09-03T08:20:33;98166.84;;;11.55;73.69
19208;BME280;9737;59.466;18.036;2022-09-03T08:23:09;98165.78;;;11.41;73.50
19208;BME280;9737;59.466;18.036;2022-09-03T08:25:45;98206.59;;;11.65;73.76
19208;BME280;9737;59.466;18.036;2022-09-03T08:28:30;98225.72;;;11.68;73.76
19208;BME280;9737;59.466;18.036;2022-09-03T08:31:20;98243.84;;;11.73;73.94
19208;BME280;9737;59.466;18.036;2022-09-03T08:34:15;98246.88;;;11.62;73.61
19208;BME280;9737;59.466;18.036;2022-09-03T08:37:02;98285.41;;;11.82;73.88
19208;BME280;9737;59.466;18.036;2022-09-03T08:39:41;98315.03;;;11.95;74.03
19208;BME280;9737;59.466;18.036;2022-09-03T08:42:38;98326.38;;;11.81;73.82
19208;BME280;9737;59.466;18.036;2022-09-03T08:45:21;98374.63;;;11.94;73.94
19208;BME280;9737;59.466;18.036;2022-09-03T08:48:03;98446.97;;;12.22;74.05
19208;BME280;9737;59.466;18.036;2022-09-03T08:50:43;98465.13;;;12.27;73.81
19208;BME280;9737;59.466;18.036;2022-09-03T08:53:26;98489.78;;;12.21;74.04
19208;BME280;9737;59.466;18.036;2022-09-03T08:56:11;98525.75;;;12.25;74.05
19208;BME280;9737;59.466;18.036;2022-09-03T08:58:47;98609.97;;;12.66;74.07
19208;BME280;9737;59.466;18.036;2022-09-03T09:01:35;98620.94;;;12.71;73.95
19208;BME280;9737;59.466;18.036;2022-09-03T09:04:46;98655.97;;;12.68;74.25
19208;BME280;9737;59.466;18.036;2022-09-03T09:07:26;98710.66;;;12.73;73.95
19208;BME280;9737;59.466;18.036;2022-09-03T09:10:15;98784.00;;;13.01;74.00
19208;BME280;9737;59.466;18.036;2022-09-03T09:13:03;98763.31;;;12.95;74.36
19208;BME280;9737;59.466;18.036;2022-09-03T09:18:48;98939.00;;;13.40;74.15
19208;BME280;9737;59.466;18.036;2022-09-03T09:21:34;99025.00;;;13.60;74.35
19208;BME280;9737;59.466;18.036;2022-09-03T09:24:37;99157.78;;;13.92;74.24
19208;BME280;9737;59.466;18.036;2022-09-03T09:27:17;99233.63;;;13.99;74.25
19208;BME280;9737;59.466;18.036;2022-09-03T09:30:32;99368.59;;;14.37;74.14
19208;BME280;9737;59.466;18.036;2022-09-03T09:33:13;99447.94;;;14.54;74.28
19208;BME280;9737;59.466;18.036;2022-09-03T09:39:06;99393.50;;;14.38;74.10
19208;BME280;9737;59.466;18.036;2022-09-03T09:41:59;99391.75;;;14.46;74.32
19208;BME280;9737;59.466;18.036;2022-09-03T09:45:08;99440.03;;;14.45;74.39
19208;BME280;9737;59.466;18.036;2022-09-03T09:47:54;99585.91;;;14.91;74.30
19208;BME280;9737;59.466;18.036;2022-09-03T09:50:44;99668.25;;;14.97;74.30
19208;BME280;9737;59.466;18.036;2022-09-03T09:53:19;99849.03;;;15.53;74.32
19208;BME280;9737;59.466;18.036;2022-09-03T09:56:06;99983.72;;;15.91;74.09
19208;BME280;9737;59.466;18.036;2022-09-03T09:58:49;100058.91;;;16.07;74.04
19208;BME280;9737;59.466;18.036;2022-09-03T10:01:21;100063.25;;;16.08;74.08
19208;BME280;9737;59.466;18.036;2022-09-03T10:04:09;100058.78;;;15.91;74.17
19208;BME280;9737;59.466;18.036;2022-09-03T10:07:06;100077.94;;;15.96;74.02
19208;BME280;9737;59.466;18.036;2022-09-03T10:09:58;100100.03;;;16.16;73.99
19208;BME280;9737;59.466;18.036;2022-09-03T10:12:33;99976.44;;;15.83;74.08
19208;BME280;9737;59.466;18.036;2022-09-03T10:15:11;99978.63;;;15.88;74.13
19208;BME280;9737;59.466;18.036;2022-09-03T10:17:51;99975.94;;;15.88;73.79
19208;BME280;9737;59.466;18.036;2022-09-03T10:20:27;100026.50;;;16.00;74.00
19208;BME280;9737;59.466;18.036;2022-09-03T10:23:06;99885.81;;;15.61;73.74
19208;BME280;9737;59.466;18.036;2022-09-03T10:26:02;99817.16;;;15.42;73.38
19208;BME280;9737;59.466;18.036;2022-09-03T10:28:51;99781.66;;;15.40;73.38
19208;BME280;9737;59.466;18.036;2022-09-03T10:34:49;99708.88;;;15.18;73.36
19208;BME280;9737;59.466;18.036;2022-09-03T10:37:38;99648.94;;;15.11;73.47
19208;BME280;9737;59.466;18.036;2022-09-03T10:43:31;99601.84;;;15.01;73.11
19208;BME280;9737;59.466;18.036;2022-09-03T10:46:10;99596.97;;;14.96;72.96
19208;BME280;9737;59.466;18.036;2022-09-03T10:48:55;99604.50;;;15.01;73.01
19208;BME280;9737;59.466;18.036;2022-09-03T10:51:34;99681.78;;;15.22;72.95
19208;BME280;9737;59.466;18.036;2022-09-03T10:54:20;99701.03;;;15.25;73.11
19208;BME280;9737;59.466;18.036;2022-09-03T10:57:05;99759.38;;;15.39;72.81
19208;BME280;9737;59.466;18.036;2022-09-03T10:59:47;99796.94;;;15.47;72.97
19208;BME280;9737;59.466;18.036;2022-09-03T11:02:56;99804.81;;;15.49;72.99
19208;BME280;9737;59.466;18.036;2022-09-03T11:05:36;99813.38;;;15.53;72.91
19208;BME280;9737;59.466;18.036;2022-09-03T11:08:09;99829.97;;;15.56;72.74
19208;BME280;9737;59.466;18.036;2022-09-03T11:10:45;99891.75;;;15.72;72.84
19208;BME280;9737;59.466;18.036;2022-09-03T11:13:19;99990.44;;;15.95;72.59
19208;BME280;9737;59.466;18.036;2022-09-03T11:15:51;100076.72;;;16.16;72.75
19208;BME280;9737;59.466;18.036;2022-09-03T11:18:24;100143.94;;;16.32;72.54
19208;BME280;9737;59.466;18.036;2022-09-03T11:20:56;100253.88;;;16.60;72.35
19208;BME280;9737;59.466;18.036;2022-09-03T11:23:28;100284.59;;;16.65;72.39
19208;BME280;9737;59.466;18.036;2022-09-03T11:26:15;100352.53;;;16.76;72.32
19208;BME280;9737;59.466;18.036;2022-09-03T11:28:55;100396.13;;;16.87;72.23
19208;BME280;9737;59.466;18.036;2022-09-03T11:32:00;100444.91;;;17.00;72.21
19208;BME280;9737;59.466;18.036;2022-09-03T11:34:45;100484.84;;;16.95;72.13
19208;BME280;9737;59.466;18.036;2022-09-03T11:37:30;100485.31;;;17.09;72.05
19208;BME280;9737;59.466;18.036;2022-09-03T11:40:27;100552.41;;;17.18;71.85
19208;BME280;9737;59.466;18.036;2022-09-03T11:43:08;100553.34;;;17.27;71.78
19208;BME280;9737;59.466;18.036;2022-09-03T11:45:39;100417.34;;;16.98;71.90
19208;BME280;9737;59.466;18.036;2022-09-03T11:48:18;100481.31;;;17.13;71.70
19208;BME280;9737;59.466;18.036;2022-09-03T11:50:55;100423.41;;;17.00;71.57
19208;BME280;9737;59.466;18.036;2022-09-03T11:53:25;100290.53;;;16.69;71.59
19208;BME280;9737;59.466;18.036;2022-09-03T11:55:59;100251.88;;;16.62;71.44
19208;BME280;9737;59.466;18.036;2022-09-03T11:58:34;100150.34;;;16.39;71.17
19208;BME280;9737;59.466;18.036;2022-09-03T12:01:07;100117.09;;;16.32;71.12
19208;BME280;9737;59.466;18.036;2022-09-03T12:03:43;100132.34;;;16.32;70.88
19208;BME280;9737;59.466;18.036;2022-09-03T12:06:26;100163.63;;;16.41;71.32
19208;BME280;9737;59.466;18.036;2022-09-03T12:09:10;100155.56;;;16.41;71.06
19208;BME280;9737;59.466;18.036;2022-09-03T12:11:51;100161.94;;;16.40;70.87
19208;BME280;9737;59.466;18.036;2022-09-03T12:14:31;100164.13;;;16.45;70.77
19208;BME280;9737;59.466;18.036;2022-09-03T12:17:13;100199.44;;;16.50;70.74
19208;BME280;9737;59.466;18.036;2022-09-03T12:19:49;100104.69;;;16.31;70.70
19208;BME280;9737;59.466;18.036;2022-09-03T12:22:20;100088.22;;;16.26;70.46
19208;BME280;9737;59.466;18.036;2022-09-03T12:24:48;100064.00;;;16.18;70.62
19208;BME280;9737;59.466;18.036;2022-09-03T12:27:19;99957.25;;;15.96;70.49
19208;BME280;9737;59.466;18.036;2022-09-03T12:29:57;99951.06;;;15.95;70.23
19208;BME280;9737;59.466;18.036;2022-09-03T12:32:28;99953.72;;;15.95;70.19
19208;BME280;9737;59.466;18.036;2022-09-03T12:35:08;99916.97;;;15.88;70.02
19208;BME280;9737;59.466;18.036;2022-09-03T12:37:37;99844.81;;;15.68;69.89
19208;BME280;9737;59.466;18.036;2022-09-03T12:40:27;99874.66;;;15.73;69.79
19208;BME280;9737;59.466;18.036;2022-09-03T12:43:11;99947.38;;;15.96;69.86
19208;BME280;9737;59.466;18.036;2022-09-03T12:46:00;99893.47;;;15.82;69.68
19208;BME280;9737;59.466;18.036;2022-09-03T12:48:36;99963.31;;;15.98;69.34
19208;BME280;9737;59.466;18.036;2022-09-03T12:51:09;100005.78;;;16.10;69.59
19208;BME280;9737;59.466;18.036;2022-09-03T12:53:57;99963.81;;;16.01;69.38
19208;BME280;9737;59.466;18.036;2022-09-03T12:56:27;100059.03;;;16.23;69.35
19208;BME280;9737;59.466;18.036;2022-09-03T12:59:03;100029.13;;;16.18;69.47
19208;BME280;9737;59.466;18.036;2022-09-03T13:01:45;99915.81;;;15.90;69.22
19208;BME280;9737;59.466;18.036;2022-09-03T13:04:19;99974.53;;;16.01;69.09
19208;BME280;9737;59.466;18.036;2022-09-03T13:06:52;99941.84;;;15.98;69.19
19208;BME280;9737;59.466;18.036;2022-09-03T13:09:24;99888.56;;;15.69;68.92
19208;BME280;9737;59.466;18.036;2022-09-03T13:11:55;99842.81;;;15.70;68.82
19208;BME280;9737;59.466;18.036;2022-09-03T13:14:25;99805.25;;;15.62;68.76
19208;BME280;9737;59.466;18.036;2022-09-03T13:17:18;99814.66;;;15.66;68.77
19208;BME280;9737;59.466;18.036;2022-09-03T13:19:58;99787.34;;;15.63;68.73
19208;BME280;9737;59.466;18.036;2022-09-03T13:22:36;99778.47;;;15.62;68.37
19208;BME280;9737;59.466;18.036;2022-09-03T13:25:13;99759.16;;;15.59;68.48
19208;BME280;9737;59.466;18.036;2022-09-03T13:27:45;99813.50;;;15.69;68.56
19208;BME280;9737;59.466;18.036;2022-09-03T13:30:21;99922.38;;;15.96;68.12
19208;BME280;9737;59.466;18.036;2022-09-03T13:32:59;99893.50;;;15.90;68.15
19208;BME280;9737;59.466;18.036;2022-09-03T13:35:33;100017.41;;;16.19;68.51
19208;BME280;9737;59.466;18.036;2022-09-03T13:38:17;99984.16;;;16.12;68.33
19208;BME280;9737;59.466;18.036;2022-09-03T13:40:52;99901.25;;;15.93;68.08
19208;BME280;9737;59.466;18.036;2022-09-03T13:43:27;99908.97;;;15.96;68.00
19208;BME280;9737;59.466;18.036;2022-09-03T13:45:59;99904.63;;;15.95;67.85
19208;BME280;9737;59.466;18.036;2022-09-03T13:48:34;99897.56;;;15.94;67.78
19208;BME280;9737;59.466;18.036;2022-09-03T13:51:25;99882.09;;;15.88;67.58
19208;BME280;9737;59.466;18.036;2022-09-03T13:54:03;99858.78;;;15.80;67.75
19208;BME280;9737;59.466;18.036;2022-09-03T13:56:45;99967.38;;;16.10;67.70
19208;BME280;9737;59.466;18.036;2022-09-03T13:59:18;100058.06;;;16.32;67.68
19208;BME280;9737;59.466;18.036;2022-09-03T14:02:06;99977.78;;;16.13;67.32
19208;BME280;9737;59.466;18.036;2022-09-03T14:04:48;99927.09;;;16.02;67.37
19208;BME280;9737;59.466;18.036;2022-09-03T14:07:20;99803.97;;;15.74;67.46
19208;BME280;9737;59.466;18.036;2022-09-03T14:09:57;99824.41;;;15.75;67.23
19208;BME280;9737;59.466;18.036;2022-09-03T14:12:38;99824.09;;;15.78;66.91